sensor_id;sensor_type;location;lat;lon;timestamp;pressure;altitude;pressure_sealevel;temperature;humidity
44079;BME280;29744;49.078;12.878;2022-12-24T00:02:16;95607.69;;;14.71;35.60
44079;BME280;29744;49.078;12.878;2022-12-24T00:07:17;95628.50;;;14.70;35.75
44079;BME280;29744;49.078;12.878;2022-12-24T00:12:17;95631.53;;;14.69;35.91
44079;BME280;29744;49.078;12.878;2022-12-24T00:17:17;95639.97;;;14.67;35.48
44079;BME280;29744;49.078;12.878;2022-12-24T00:22:18;95631.44;;;14.65;35.51
44079;BME280;29744;49.078;12.878;2022-12-24T00:27:18;95643.00;;;14.66;36.05
44079;BME280;29744;49.078;12.878;2022-12-24T00:32:18;95656.06;;;14.64;35.90
44079;BME280;29744;49.078;12.878;2022-12-24T00:37:18;95652.59;;;14.63;35.85
44079;BME280;29744;49.078;12.878;2022-12-24T00:42:19;95661.81;;;14.62;36.01
44079;BME280;29744;49.078;12.878;2022-12-24T00:47:19;95667.09;;;14.59;36.00
44079;BME280;29744;49.078;12.878;2022-12-24T00:52:20;95673.28;;;14.59;35.62
44079;BME280;29744;49.078;12.878;2022-12-24T00:57:20;95681.72;;;14.58;35.74
44079;BME280;29744;49.078;12.878;2022-12-24T01:02:20;95687.47;;;14.56;36.13
44079;BME280;29744;49.078;12.878;2022-12-24T01:07:21;95692.84;;;14.56;35.64
44079;BME280;29744;49.078;12.878;2022-12-24T01:12:22;95702.41;;;14.54;35.96
44079;BME280;29744;49.078;12.878;2022-12-24T01:17:22;95701.63;;;14.53;35.78
44079;BME280;29744;49.078;12.878;2022-12-24T01:22:22;95710.06;;;14.52;35.97
44079;BME280;29744;49.078;12.878;2022-12-24T01:27:23;95705.78;;;14.50;36.13
44079;BME280;29744;49.078;12.878;2022-12-24T01:32:23;95706.13;;;14.49;36.21
44079;BME280;29744;49.078;12.878;2022-12-24T01:37:23;95713.44;;;14.48;35.94
44079;BME280;29744;49.078;12.878;2022-12-24T01:42:24;95711.09;;;14.47;36.37
44079;BME280;29744;49.078;12.878;2022-12-24T01:47:43;95711.44;;;14.45;36.16
44079;BME280;29744;49.078;12.878;2022-12-24T01:52:43;95723.34;;;14.44;35.86
44079;BME280;29744;49.078;12.878;2022-12-24T01:57:53;95733.69;;;14.42;35.94
44079;BME280;29744;49.078;12.878;2022-12-24T02:02:55;95724.81;;;14.42;35.88
44079;BME280;29744;49.078;12.878;2022-12-24T02:07:57;95744.03;;;14.40;35.94
44079;BME280;29744;49.078;12.878;2022-12-24T02:13:00;95744.81;;;14.41;36.13
44079;BME280;29744;49.078;12.878;2022-12-24T02:18:38;95761.34;;;14.39;35.97
44079;BME280;29744;49.078;12.878;2022-12-24T02:34:21;95780.13;;;14.36;35.91
44079;BME280;29744;49.078;12.878;2022-12-24T02:44:47;95777.75;;;14.34;36.33
44079;BME280;29744;49.078;12.878;2022-12-24T02:49:49;95792.38;;;14.33;36.19
44079;BME280;29744;49.078;12.878;2022-12-24T02:54:49;95792.38;;;14.33;36.20
44079;BME280;29744;49.078;12.878;2022-12-24T03:00:03;95790.00;;;14.32;35.93
44079;BME280;29744;49.078;12.878;2022-12-24T03:10:33;95822.25;;;14.28;35.97
44079;BME280;29744;49.078;12.878;2022-12-24T03:15:36;95829.22;;;14.29;35.95
44079;BME280;29744;49.078;12.878;2022-12-24T03:20:45;95834.63;;;14.29;36.35
44079;BME280;29744;49.078;12.878;2022-12-24T03:25:48;95838.44;;;14.28;36.37
44079;BME280;29744;49.078;12.878;2022-12-24T03:30:48;95848.44;;;14.28;35.99
44079;BME280;29744;49.078;12.878;2022-12-24T03:35:49;95846.88;;;14.27;36.58
44079;BME280;29744;49.078;12.878;2022-12-24T03:40:49;95862.25;;;14.26;36.07
44079;BME280;29744;49.078;12.878;2022-12-24T03:45:49;95872.25;;;14.26;36.48
44079;BME280;29744;49.078;12.878;2022-12-24T03:50:49;95888.44;;;14.26;35.98
44079;BME280;29744;49.078;12.878;2022-12-24T03:55:50;95898.44;;;14.25;36.05
44079;BME280;29744;49.078;12.878;2022-12-24T04:00:52;95906.53;;;14.25;36.23
44079;BME280;29744;49.078;12.878;2022-12-24T04:06:07;95920.69;;;14.22;36.29
44079;BME280;29744;49.078;12.878;2022-12-24T04:11:10;95928.44;;;14.24;36.54
44079;BME280;29744;49.078;12.878;2022-12-24T04:16:13;95917.19;;;14.22;36.27
44079;BME280;29744;49.078;12.878;2022-12-24T04:21:13;95929.88;;;14.21;36.31
44079;BME280;29744;49.078;12.878;2022-12-24T04:26:14;95929.09;;;14.21;36.60
44079;BME280;29744;49.078;12.878;2022-12-24T04:31:16;95937.16;;;14.21;36.23
44079;BME280;29744;49.078;12.878;2022-12-24T04:36:17;95947.19;;;14.20;36.11
44079;BME280;29744;49.078;12.878;2022-12-24T04:41:20;95943.34;;;14.21;36.57
44079;BME280;29744;49.078;12.878;2022-12-24T04:46:24;95955.75;;;14.22;36.09
44079;BME280;29744;49.078;12.878;2022-12-24T04:51:26;95961.59;;;14.24;36.37
44079;BME280;29744;49.078;12.878;2022-12-24T04:56:29;95951.38;;;14.30;36.26
44079;BME280;29744;49.078;12.878;2022-12-24T05:01:31;95951.63;;;14.37;36.09
44079;BME280;29744;49.078;12.878;2022-12-24T05:06:33;95958.50;;;14.46;35.94
44079;BME280;29744;49.078;12.878;2022-12-24T05:11:33;95964.59;;;14.56;36.17
44079;BME280;29744;49.078;12.878;2022-12-24T05:16:33;95972.72;;;14.68;36.52
44079;BME280;29744;49.078;12.878;2022-12-24T05:21:34;95970.03;;;14.80;36.14
44079;BME280;29744;49.078;12.878;2022-12-24T05:26:43;95981.63;;;14.93;35.88
44079;BME280;29744;49.078;12.878;2022-12-24T05:31:46;95988.97;;;15.04;36.05
44079;BME280;29744;49.078;12.878;2022-12-24T05:36:46;95986.94;;;15.13;35.74
44079;BME280;29744;49.078;12.878;2022-12-24T05:41:46;95987.97;;;15.21;35.63
44079;BME280;29744;49.078;12.878;2022-12-24T05:46:47;95984.78;;;15.31;35.90
44079;BME280;29744;49.078;12.878;2022-12-24T05:51:47;95990.75;;;15.37;35.40
44079;BME280;29744;49.078;12.878;2022-12-24T05:56:47;95995.16;;;15.41;35.47
44079;BME280;29744;49.078;12.878;2022-12-24T06:01:47;95994.13;;;15.46;35.40
44079;BME280;29744;49.078;12.878;2022-12-24T06:06:48;95990.75;;;15.49;35.27
44079;BME280;29744;49.078;12.878;2022-12-24T06:11:48;96005.94;;;15.54;35.57
44079;BME280;29744;49.078;12.878;2022-12-24T06:16:48;96018.31;;;15.55;35.62
44079;BME280;29744;49.078;12.878;2022-12-24T06:21:49;96029.13;;;15.55;35.24
44079;BME280;29744;49.078;12.878;2022-12-24T06:26:49;96038.81;;;15.56;35.09
44079;BME280;29744;49.078;12.878;2022-12-24T06:31:49;96040.38;;;15.57;35.17
44079;BME280;29744;49.078;12.878;2022-12-24T06:36:49;96041.53;;;15.56;35.25
44079;BME280;29744;49.078;12.878;2022-12-24T06:41:50;96046.13;;;15.55;35.37
44079;BME280;29744;49.078;12.878;2022-12-24T06:46:50;96056.16;;;15.55;35.03
44079;BME280;29744;49.078;12.878;2022-12-24T06:51:50;96059.19;;;15.53;35.30
44079;BME280;29744;49.078;12.878;2022-12-24T06:56:50;96046.03;;;15.52;34.93
44079;BME280;29744;49.078;12.878;2022-12-24T07:01:51;96049.06;;;15.50;35.41
44079;BME280;29744;49.078;12.878;2022-12-24T07:06:51;96053.69;;;15.50;35.22
44079;BME280;29744;49.078;12.878;2022-12-24T07:11:51;96067.88;;;15.46;35.12
44079;BME280;29744;49.078;12.878;2022-12-24T07:16:52;96068.66;;;15.47;35.54
44079;BME280;29744;49.078;12.878;2022-12-24T07:21:52;96076.66;;;15.43;35.02
44079;BME280;29744;49.078;12.878;2022-12-24T07:26:52;96089.72;;;15.41;35.30
44079;BME280;29744;49.078;12.878;2022-12-24T07:31:52;96102.78;;;15.39;35.08
44079;BME280;29744;49.078;12.878;2022-12-24T07:36:53;96105.03;;;15.37;35.36
44079;BME280;29744;49.078;12.878;2022-12-24T07:41:53;96112.69;;;15.35;35.04
44079;BME280;29744;49.078;12.878;2022-12-24T07:46:53;96126.53;;;15.34;35.09
44079;BME280;29744;49.078;12.878;2022-12-24T07:51:54;96133.38;;;15.31;35.08
44079;BME280;29744;49.078;12.878;2022-12-24T07:56:54;96130.22;;;15.29;35.16
44079;BME280;29744;49.078;12.878;2022-12-24T08:01:54;96141.72;;;15.26;35.30
44079;BME280;29744;49.078;12.878;2022-12-24T08:06:54;96143.63;;;15.26;35.39
44079;BME280;29744;49.078;12.878;2022-12-24T08:11:55;96150.47;;;15.23;35.20
44079;BME280;29744;49.078;12.878;2022-12-24T08:16:55;96155.44;;;15.21;35.20
44079;BME280;29744;49.078;12.878;2022-12-24T08:21:56;96155.75;;;15.20;35.44
44079;BME280;29744;49.078;12.878;2022-12-24T08:26:56;96157.69;;;15.19;35.75
44079;BME280;29744;49.078;12.878;2022-12-24T08:31:56;96162.28;;;15.19;35.49
44079;BME280;29744;49.078;12.878;2022-12-24T08:36:56;96170.72;;;15.17;35.67
44079;BME280;29744;49.078;12.878;2022-12-24T08:41:57;96167.25;;;15.17;35.40
44079;BME280;29744;49.078;12.878;2022-12-24T08:46:57;96179.16;;;15.16;35.26
44079;BME280;29744;49.078;12.878;2022-12-24T08:51:57;96179.97;;;15.16;35.17
44079;BME280;29744;49.078;12.878;2022-12-24T08:56:57;96176.47;;;15.16;35.62
44079;BME280;29744;49.078;12.878;2022-12-24T09:01:58;96179.16;;;15.16;35.30
44079;BME280;29744;49.078;12.878;2022-12-24T09:06:58;96199.19;;;15.14;35.73
44079;BME280;29744;49.078;12.878;2022-12-24T09:11:59;96204.59;;;15.14;35.80
44079;BME280;29744;49.078;12.878;2022-12-24T09:16:59;96204.94;;;15.13;35.33
44079;BME280;29744;49.078;12.878;2022-12-24T09:21:59;96209.53;;;15.12;35.74
44079;BME280;29744;49.078;12.878;2022-12-24T09:27:00;96217.97;;;15.11;35.57
44079;BME280;29744;49.078;12.878;2022-12-24T09:32:01;96224.16;;;15.11;35.70
44079;BME280;29744;49.078;12.878;2022-12-24T09:37:02;96228.00;;;15.10;35.55
44079;BME280;29744;49.078;12.878;2022-12-24T09:42:16;96238.00;;;15.10;35.24
44079;BME280;29744;49.078;12.878;2022-12-24T09:47:36;96238.66;;;15.07;35.59
44079;BME280;29744;49.078;12.878;2022-12-24T09:52:40;96244.84;;;15.07;35.54
44079;BME280;29744;49.078;12.878;2022-12-24T09:57:45;96255.66;;;15.07;35.78
44079;BME280;29744;49.078;12.878;2022-12-24T10:02:46;96247.88;;;15.06;35.28
44079;BME280;29744;49.078;12.878;2022-12-24T10:07:53;96265.22;;;15.05;35.46
44079;BME280;29744;49.078;12.878;2022-12-24T10:13:17;96275.56;;;15.03;35.93
44079;BME280;29744;49.078;12.878;2022-12-24T10:24:06;96270.00;;;14.99;35.58
44079;BME280;29744;49.078;12.878;2022-12-24T10:29:15;96276.97;;;15.00;35.80
44079;BME280;29744;49.078;12.878;2022-12-24T10:34:24;96272.69;;;14.99;35.67
44079;BME280;29744;49.078;12.878;2022-12-24T10:39:27;96272.69;;;14.99;35.43
44079;BME280;29744;49.078;12.878;2022-12-24T10:44:30;96263.81;;;14.99;35.56
44079;BME280;29744;49.078;12.878;2022-12-24T10:49:40;96271.44;;;14.97;35.70
44079;BME280;29744;49.078;12.878;2022-12-24T11:00:21;96277.19;;;14.95;35.95
44079;BME280;29744;49.078;12.878;2022-12-24T11:05:36;96278.63;;;14.93;35.74
44079;BME280;29744;49.078;12.878;2022-12-24T11:10:39;96274.03;;;14.93;36.07
44079;BME280;29744;49.078;12.878;2022-12-24T11:15:41;96294.03;;;14.92;35.46
44079;BME280;29744;49.078;12.878;2022-12-24T11:20:48;96288.19;;;14.90;35.54
44079;BME280;29744;49.078;12.878;2022-12-24T11:25:50;96288.50;;;14.89;35.80
44079;BME280;29744;49.078;12.878;2022-12-24T11:36:05;96301.53;;;14.87;35.54
44079;BME280;29744;49.078;12.878;2022-12-24T11:41:09;96312.66;;;14.85;36.03
44079;BME280;29744;49.078;12.878;2022-12-24T11:46:19;96308.38;;;14.84;35.90
44079;BME280;29744;49.078;12.878;2022-12-24T11:51:21;96309.50;;;14.83;35.72
44079;BME280;29744;49.078;12.878;2022-12-24T11:56:35;96300.16;;;14.80;35.69
44079;BME280;29744;49.078;12.878;2022-12-24T12:01:49;96295.88;;;14.79;35.83
44079;BME280;29744;49.078;12.878;2022-12-24T12:06:56;96282.38;;;14.79;35.66
44079;BME280;29744;49.078;12.878;2022-12-24T12:12:01;96291.28;;;14.80;35.64
44079;BME280;29744;49.078;12.878;2022-12-24T12:17:21;96286.19;;;14.78;35.79
44079;BME280;29744;49.078;12.878;2022-12-24T12:27:39;96298.13;;;14.77;35.64
44079;BME280;29744;49.078;12.878;2022-12-24T12:32:58;96301.13;;;14.76;35.70
44079;BME280;29744;49.078;12.878;2022-12-24T12:38:02;96304.16;;;14.74;35.73
44079;BME280;29744;49.078;12.878;2022-12-24T12:54:30;96315.47;;;14.68;35.81
44079;BME280;29744;49.078;12.878;2022-12-24T12:59:40;96312.78;;;14.68;35.95
44079;BME280;29744;49.078;12.878;2022-12-24T13:05:18;96319.31;;;14.67;36.25
44079;BME280;29744;49.078;12.878;2022-12-24T13:10:49;96316.59;;;14.67;35.95
44079;BME280;29744;49.078;12.878;2022-12-24T13:21:15;96320.75;;;14.64;36.50
44079;BME280;29744;49.078;12.878;2022-12-24T13:26:16;96324.56;;;14.63;36.04
44079;BME280;29744;49.078;12.878;2022-12-24T13:36:23;96319.50;;;14.62;36.32
44079;BME280;29744;49.078;12.878;2022-12-24T13:46:56;96322.38;;;14.57;36.15
44079;BME280;29744;49.078;12.878;2022-12-24T13:57:34;96347.00;;;14.55;36.32
44079;BME280;29744;49.078;12.878;2022-12-24T14:03:24;96347.00;;;14.55;36.32
44079;BME280;29744;49.078;12.878;2022-12-24T14:08:00;96345.41;;;14.54;35.94
44079;BME280;29744;49.078;12.878;2022-12-24T14:13:02;96353.50;;;14.54;36.12
44079;BME280;29744;49.078;12.878;2022-12-24T14:18:08;96346.19;;;14.55;36.43
44079;BME280;29744;49.078;12.878;2022-12-24T14:23:30;96360.81;;;14.54;36.29
44079;BME280;29744;49.078;12.878;2022-12-24T14:28:35;96361.75;;;14.58;36.07
44079;BME280;29744;49.078;12.878;2022-12-24T14:33:38;96359.97;;;14.62;36.32
44079;BME280;29744;49.078;12.878;2022-12-24T14:38:40;96374.06;;;14.67;35.92
44079;BME280;29744;49.078;12.878;2022-12-24T14:43:50;96383.56;;;14.73;36.23
44079;BME280;29744;49.078;12.878;2022-12-24T14:49:29;96378.31;;;14.77;36.38
44079;BME280;29744;49.078;12.878;2022-12-24T14:54:39;96380.16;;;14.85;35.96
44079;BME280;29744;49.078;12.878;2022-12-24T14:59:45;96383.47;;;14.91;36.07
44079;BME280;29744;49.078;12.878;2022-12-24T15:05:11;96395.66;;;14.97;36.31
44079;BME280;29744;49.078;12.878;2022-12-24T15:10:24;96397.38;;;15.01;35.90
44079;BME280;29744;49.078;12.878;2022-12-24T15:15:25;96402.63;;;15.06;35.94
44079;BME280;29744;49.078;12.878;2022-12-24T15:20:26;96408.16;;;15.10;35.98
44079;BME280;29744;49.078;12.878;2022-12-24T15:25:30;96412.91;;;15.13;35.62
44079;BME280;29744;49.078;12.878;2022-12-24T15:30:30;96415.28;;;15.14;35.71
44079;BME280;29744;49.078;12.878;2022-12-24T15:40:33;96410.34;;;15.17;35.96
44079;BME280;29744;49.078;12.878;2022-12-24T15:45:40;96408.44;;;15.17;35.95
44079;BME280;29744;49.078;12.878;2022-12-24T15:50:47;96402.75;;;15.10;35.85
44079;BME280;29744;49.078;12.878;2022-12-24T16:06:10;96424.97;;;15.16;35.46
44079;BME280;29744;49.078;12.878;2022-12-24T16:11:17;96432.28;;;15.15;35.81
44079;BME280;29744;49.078;12.878;2022-12-24T16:16:21;96429.59;;;15.15;35.92
44079;BME280;29744;49.078;12.878;2022-12-24T16:21:36;96432.59;;;15.13;35.35
44079;BME280;29744;49.078;12.878;2022-12-24T16:26:37;96436.44;;;15.12;35.56
44079;BME280;29744;49.078;12.878;2022-12-24T16:31:45;96439.13;;;15.12;36.04
44079;BME280;29744;49.078;12.878;2022-12-24T16:36:46;96436.75;;;15.11;35.57
44079;BME280;29744;49.078;12.878;2022-12-24T16:41:46;96450.25;;;15.11;35.98
44079;BME280;29744;49.078;12.878;2022-12-24T16:47:09;96460.59;;;15.09;35.69
44079;BME280;29744;49.078;12.878;2022-12-24T16:52:20;96479.84;;;15.07;35.54
44079;BME280;29744;49.078;12.878;2022-12-24T16:57:22;96485.56;;;15.06;35.58
44079;BME280;29744;49.078;12.878;2022-12-24T17:02:23;96483.50;;;15.03;35.50
44079;BME280;29744;49.078;12.878;2022-12-24T17:07:24;96490.00;;;15.02;35.86
44079;BME280;29744;49.078;12.878;2022-12-24T17:12:24;96497.63;;;15.00;35.70
44079;BME280;29744;49.078;12.878;2022-12-24T17:17:27;96500.66;;;14.98;35.56
44079;BME280;29744;49.078;12.878;2022-12-24T17:22:28;96509.09;;;14.97;35.88
44079;BME280;29744;49.078;12.878;2022-12-24T17:27:28;96515.94;;;14.94;35.84
44079;BME280;29744;49.078;12.878;2022-12-24T17:32:28;96519.75;;;14.93;36.00
44079;BME280;29744;49.078;12.878;2022-12-24T17:37:29;96521.97;;;14.91;36.06
44079;BME280;29744;49.078;12.878;2022-12-24T17:42:29;96533.88;;;14.90;35.59
44079;BME280;29744;49.078;12.878;2022-12-24T17:47:29;96531.50;;;14.89;36.05
44079;BME280;29744;49.078;12.878;2022-12-24T17:52:29;96532.63;;;14.88;36.13
44079;BME280;29744;49.078;12.878;2022-12-24T17:57:30;96532.16;;;14.86;35.64
44079;BME280;29744;49.078;12.878;2022-12-24T18:02:30;96527.88;;;14.85;35.96
44079;BME280;29744;49.078;12.878;2022-12-24T18:07:30;96529.00;;;14.83;35.67
44079;BME280;29744;49.078;12.878;2022-12-24T18:12:31;96529.78;;;14.84;36.14
44079;BME280;29744;49.078;12.878;2022-12-24T18:17:31;96532.00;;;14.82;35.79
44079;BME280;29744;49.078;12.878;2022-12-24T18:22:31;96530.09;;;14.82;36.10
44079;BME280;29744;49.078;12.878;2022-12-24T18:27:33;96535.50;;;14.82;35.96
44079;BME280;29744;49.078;12.878;2022-12-24T18:32:34;96549.78;;;14.83;35.72
44079;BME280;29744;49.078;12.878;2022-12-24T18:37:35;96545.97;;;14.84;36.17
44079;BME280;29744;49.078;12.878;2022-12-24T18:42:39;96546.78;;;14.85;35.68
44079;BME280;29744;49.078;12.878;2022-12-24T18:47:39;96554.88;;;14.85;35.78
44079;BME280;29744;49.078;12.878;2022-12-24T18:52:40;96561.38;;;14.83;36.24
44079;BME280;29744;49.078;12.878;2022-12-24T18:57:40;96554.09;;;14.84;35.88
44079;BME280;29744;49.078;12.878;2022-12-24T19:02:40;96556.00;;;14.83;36.32
44079;BME280;29744;49.078;12.878;2022-12-24T19:07:40;96546.78;;;14.85;35.96
44079;BME280;29744;49.078;12.878;2022-12-24T19:12:41;96556.78;;;14.84;36.31
44079;BME280;29744;49.078;12.878;2022-12-24T19:17:41;96565.69;;;14.85;35.98
44079;BME280;29744;49.078;12.878;2022-12-24T19:22:41;96573.78;;;14.85;35.98
44079;BME280;29744;49.078;12.878;2022-12-24T19:27:42;96572.19;;;14.83;35.77
44079;BME280;29744;49.078;12.878;2022-12-24T19:32:42;96572.19;;;14.83;35.97
44079;BME280;29744;49.078;12.878;2022-12-24T19:37:42;96577.91;;;14.82;35.91
44079;BME280;29744;49.078;12.878;2022-12-24T19:42:42;96585.22;;;14.81;35.74
44079;BME280;29744;49.078;12.878;2022-12-24T19:47:45;96601.41;;;14.81;35.95
44079;BME280;29744;49.078;12.878;2022-12-24T19:52:47;96599.03;;;14.80;35.97
44079;BME280;29744;49.078;12.878;2022-12-24T19:57:47;96601.25;;;14.78;35.97
44079;BME280;29744;49.078;12.878;2022-12-24T20:02:47;96607.00;;;14.76;35.78
44079;BME280;29744;49.078;12.878;2022-12-24T20:07:48;96583.81;;;14.75;35.97
44079;BME280;29744;49.078;12.878;2022-12-24T20:12:48;96587.63;;;14.74;36.22
44079;BME280;29744;49.078;12.878;2022-12-24T20:17:48;96576.03;;;14.74;36.13
44079;BME280;29744;49.078;12.878;2022-12-24T20:22:51;96576.34;;;14.72;36.13
44079;BME280;29744;49.078;12.878;2022-12-24T20:27:51;96580.16;;;14.71;36.18
44079;BME280;29744;49.078;12.878;2022-12-24T20:32:53;96583.97;;;14.70;35.90
44079;BME280;29744;49.078;12.878;2022-12-24T20:37:53;96595.88;;;14.69;36.11
44079;BME280;29744;49.078;12.878;2022-12-24T20:42:53;96604.31;;;14.68;36.05
44079;BME280;29744;49.078;12.878;2022-12-24T20:47:54;96596.53;;;14.66;36.15
44079;BME280;29744;49.078;12.878;2022-12-24T20:52:54;96610.03;;;14.66;36.00
44079;BME280;29744;49.078;12.878;2022-12-24T20:57:54;96625.75;;;14.64;36.19
44079;BME280;29744;49.078;12.878;2022-12-24T21:02:55;96621.47;;;14.63;36.27
44079;BME280;29744;49.078;12.878;2022-12-24T21:07:55;96618.28;;;14.61;36.19
44079;BME280;29744;49.078;12.878;2022-12-24T21:12:55;96619.06;;;14.62;36.15
44079;BME280;29744;49.078;12.878;2022-12-24T21:17:58;96615.91;;;14.60;36.36
44079;BME280;29744;49.078;12.878;2022-12-24T21:22:59;96614.31;;;14.59;36.41
44079;BME280;29744;49.078;12.878;2022-12-24T21:28:00;96622.72;;;14.57;36.00
44079;BME280;29744;49.078;12.878;2022-12-24T21:33:00;96612.25;;;14.56;36.23
44079;BME280;29744;49.078;12.878;2022-12-24T21:38:00;96611.47;;;14.55;36.49
44079;BME280;29744;49.078;12.878;2022-12-24T21:43:01;96618.75;;;14.55;36.21
44079;BME280;29744;49.078;12.878;2022-12-24T21:48:02;96623.38;;;14.54;36.52
44079;BME280;29744;49.078;12.878;2022-12-24T21:53:22;96627.19;;;14.53;36.25
44079;BME280;29744;49.078;12.878;2022-12-24T21:58:42;96625.59;;;14.52;36.09
44079;BME280;29744;49.078;12.878;2022-12-24T22:03:43;96633.22;;;14.50;36.48
44079;BME280;29744;49.078;12.878;2022-12-24T22:08:46;96629.41;;;14.51;36.47
44079;BME280;29744;49.078;12.878;2022-12-24T22:14:05;96628.94;;;14.49;36.44
44079;BME280;29744;49.078;12.878;2022-12-24T22:19:05;96620.84;;;14.49;36.35
44079;BME280;29744;49.078;12.878;2022-12-24T22:24:06;96621.94;;;14.48;36.24
44079;BME280;29744;49.078;12.878;2022-12-24T22:29:06;96620.34;;;14.47;36.31
44079;BME280;29744;49.078;12.878;2022-12-24T22:34:06;96612.59;;;14.45;36.54
44079;BME280;29744;49.078;12.878;2022-12-24T22:39:07;96611.47;;;14.46;36.52
44079;BME280;29744;49.078;12.878;2022-12-24T22:44:07;96613.69;;;14.44;36.36
44079;BME280;29744;49.078;12.878;2022-12-24T22:49:09;96622.09;;;14.43;36.67
44079;BME280;29744;49.078;12.878;2022-12-24T22:54:10;96619.41;;;14.43;36.74
44079;BME280;29744;49.078;12.878;2022-12-24T22:59:13;96614.31;;;14.41;36.49
44079;BME280;29744;49.078;12.878;2022-12-24T23:04:13;96622.44;;;14.41;36.31
44079;BME280;29744;49.078;12.878;2022-12-24T23:09:14;96627.34;;;14.39;36.83
44079;BME280;29744;49.078;12.878;2022-12-24T23:14:16;96638.13;;;14.39;36.35
44079;BME280;29744;49.078;12.878;2022-12-24T23:19:37;96630.34;;;14.38;36.85
44079;BME280;29744;49.078;12.878;2022-12-24T23:24:37;96645.75;;;14.37;36.30
44079;BME280;29744;49.078;12.878;2022-12-24T23:29:38;96646.88;;;14.36;36.53
44079;BME280;29744;49.078;12.878;2022-12-24T23:34:38;96656.06;;;14.35;36.60
44079;BME280;29744;49.078;12.878;2022-12-24T23:39:39;96642.56;;;14.35;36.82
44079;BME280;29744;49.078;12.878;2022-12-24T23:44:39;96642.91;;;14.34;36.60
44079;BME280;29744;49.078;12.878;2022-12-24T23:49:39;96645.59;;;14.34;36.53
44079;BME280;29744;49.078;12.878;2022-12-24T23:54:40;96649.41;;;14.33;36.54
44079;BME280;29744;49.078;12.878;2022-12-24T23:59:40;96645.91;;;14.32;36.88
